Time;durP1;ratioP1;P1;durP2;ratioP2;P2;SDS_P1;SDS_P2;PMS_P1;PMS_P2;Temp;Humidity;BMP_temperature;BMP_pressure;BME280_temperature;BME280_humidity;BME280_pressure;Samples;Min_cycle;Max_cycle;Signal;HPM_P1;HPM_P2
2022/07/22 00:02:16;;;;;;;8.63;5.15;;;;;;;;;;5049961;28;20045;-69
2022/07/22 00:04:44;;;;;;;8.85;4.60;;;;;;;;;;5049996;27;20049;-69
2022/07/22 00:07:12;;;;;;;9.45;4.97;;;;;;;;;;5050024;28;20041;-70
2022/07/22 00:09:40;;;;;;;10.50;5.10;;;;;;;;;;5049834;28;20164;-69
2022/07/22 00:12:08;;;;;;;10.75;5.05;;;;;;;;;;5049704;28;20048;-69
2022/07/22 00:14:35;;;;;;;8.30;4.88;;;;;;;;;;5049855;28;20040;-70
2022/07/22 00:17:03;;;;;;;12.13;4.95;;;;;;;;;;5049503;28;20045;-70
2022/07/22 00:19:30;;;;;;;11.50;4.72;;;;;;;;;;5049674;28;20049;-69
2022/07/22 00:21:58;;;;;;;10.95;4.90;;;;;;;;;;5049578;28;20049;-70
2022/07/22 00:24:25;;;;;;;11.60;4.72;;;;;;;;;;5050168;27;20041;-69
2022/07/22 00:26:53;;;;;;;6.22;4.43;;;;;;;;;;5049663;28;20060;-69
2022/07/22 00:29:20;;;;;;;6.85;4.38;;;;;;;;;;5049677;28;20037;-70
2022/07/22 00:31:48;;;;;;;11.57;4.80;;;;;;;;;;5118498;27;20042;-69
2022/07/22 00:34:16;;;;;;;10.20;5.10;;;;;;;;;;5118142;27;20071;-69
2022/07/22 00:36:43;;;;;;;9.05;5.50;;;;;;;;;;5118785;27;20047;-70
2022/07/22 00:39:11;;;;;;;7.68;4.88;;;;;;;;;;5119001;27;20046;-69
2022/07/22 00:41:39;;;;;;;12.75;5.07;;;;;;;;;;5117909;27;20045;-70
2022/07/22 00:44:07;;;;;;;9.60;4.80;;;;;;;;;;5101081;28;20037;-69
2022/07/22 00:46:37;;;;;;;9.10;5.35;;;;;;;;;;5049074;28;20067;-70
2022/07/22 00:49:06;;;;;;;7.93;4.35;;;;;;;;;;5118014;28;20071;-70
2022/07/22 00:51:34;;;;;;;9.73;4.88;;;;;;;;;;5118300;28;20055;-69
2022/07/22 00:54:02;;;;;;;11.98;4.90;;;;;;;;;;5049156;28;20040;-70
2022/07/22 00:56:30;;;;;;;9.52;5.00;;;;;;;;;;5049354;28;20055;-70
2022/07/22 00:59:00;;;;;;;9.48;4.93;;;;;;;;;;5118178;28;20045;-70
2022/07/22 01:01:27;;;;;;;8.52;4.68;;;;;;;;;;5101447;28;20135;-70
2022/07/22 01:03:56;;;;;;;7.35;4.75;;;;;;;;;;5117886;28;20498;-70
2022/07/22 01:06:28;;;;;;;9.25;4.88;;;;;;;;;;5049231;28;20048;-70
2022/07/22 01:08:56;;;;;;;9.77;5.10;;;;;;;;;;5118093;28;20049;-69
2022/07/22 01:11:25;;;;;;;9.75;4.93;;;;;;;;;;5049524;28;20129;-69
2022/07/22 01:13:53;;;;;;;11.02;5.32;;;;;;;;;;5048977;28;20090;-70
2022/07/22 01:16:21;;;;;;;10.02;4.90;;;;;;;;;;5118073;28;20080;-70
2022/07/22 01:18:48;;;;;;;9.85;4.85;;;;;;;;;;5118020;28;20041;-70
2022/07/22 01:21:17;;;;;;;9.40;5.13;;;;;;;;;;5117787;28;20057;-70
2022/07/22 01:23:45;;;;;;;8.15;4.68;;;;;;;;;;5117845;28;20086;-69
2022/07/22 01:26:12;;;;;;;6.10;4.90;;;;;;;;;;5048913;28;20154;-69
2022/07/22 01:28:40;;;;;;;7.13;4.72;;;;;;;;;;5048977;28;20119;-70
2022/07/22 01:31:08;;;;;;;7.70;4.82;;;;;;;;;;5117627;28;20391;-70
2022/07/22 01:33:36;;;;;;;7.07;4.63;;;;;;;;;;5117722;28;20052;-70
2022/07/22 01:36:04;;;;;;;10.77;5.15;;;;;;;;;;5117719;28;20051;-70
2022/07/22 01:38:33;;;;;;;9.00;4.80;;;;;;;;;;5117400;28;20453;-69
2022/07/22 01:41:00;;;;;;;9.05;4.63;;;;;;;;;;5117610;28;20049;-70
2022/07/22 01:43:28;;;;;;;9.80;4.97;;;;;;;;;;5117629;28;20065;-70
2022/07/22 01:45:56;;;;;;;10.02;4.78;;;;;;;;;;5048676;28;20053;-70
2022/07/22 01:48:24;;;;;;;8.25;4.95;;;;;;;;;;5117520;28;20049;-70
2022/07/22 01:50:52;;;;;;;8.05;4.70;;;;;;;;;;5117585;28;20052;-70
2022/07/22 01:53:19;;;;;;;6.82;4.55;;;;;;;;;;5117405;28;20049;-70
2022/07/22 01:55:48;;;;;;;10.15;4.82;;;;;;;;;;5117661;28;20090;-70
2022/07/22 01:58:17;;;;;;;9.80;4.80;;;;;;;;;;5086466;27;20044;-70
2022/07/22 02:00:46;;;;;;;9.18;4.70;;;;;;;;;;5121053;27;20056;-70
2022/07/22 02:03:13;;;;;;;8.60;4.85;;;;;;;;;;5051963;28;20045;-70
2022/07/22 02:05:41;;;;;;;8.93;5.07;;;;;;;;;;5121102;27;20081;-69
2022/07/22 02:08:18;;;;;;;7.18;4.90;;;;;;;;;;5051774;27;20041;-69
2022/07/22 02:11:04;;;;;;;13.02;5.18;;;;;;;;;;5051737;28;20060;-70
2022/07/22 02:13:34;;;;;;;13.20;5.63;;;;;;;;;;5121173;27;20387;-70
2022/07/22 02:16:02;;;;;;;9.50;5.43;;;;;;;;;;5120694;27;20525;-70
2022/07/22 02:18:30;;;;;;;10.43;4.72;;;;;;;;;;5120843;27;20041;-69
2022/07/22 02:20:58;;;;;;;9.77;5.35;;;;;;;;;;5120748;27;20044;-70
2022/07/22 02:23:26;;;;;;;9.27;5.57;;;;;;;;;;5103987;27;20490;-70
2022/07/22 02:25:53;;;;;;;12.70;5.70;;;;;;;;;;5120350;27;20444;-69
2022/07/22 02:28:21;;;;;;;9.48;5.55;;;;;;;;;;5120745;27;20044;-70
2022/07/22 02:30:48;;;;;;;9.40;6.18;;;;;;;;;;5120665;27;20516;-70
2022/07/22 02:33:17;;;;;;;14.13;6.05;;;;;;;;;;5120381;27;20055;-70
2022/07/22 02:35:44;;;;;;;11.90;6.18;;;;;;;;;;5120572;27;20075;-70
2022/07/22 02:38:12;;;;;;;12.68;5.65;;;;;;;;;;5120276;27;20053;-70
2022/07/22 02:40:40;;;;;;;9.30;5.97;;;;;;;;;;5120316;27;20041;-70
2022/07/22 02:43:07;;;;;;;15.25;6.05;;;;;;;;;;5120073;27;20049;-69
2022/07/22 02:45:35;;;;;;;8.90;5.85;;;;;;;;;;5120005;27;20432;-70
2022/07/22 02:48:03;;;;;;;10.38;5.53;;;;;;;;;;5051076;28;20075;-70
2022/07/22 02:50:33;;;;;;;15.35;5.75;;;;;;;;;;5120146;27;20041;-69
2022/07/22 02:53:01;;;;;;;9.68;5.72;;;;;;;;;;5120081;27;20431;-70
2022/07/22 02:55:33;;;;;;;14.25;5.78;;;;;;;;;;5120230;27;20041;-70
2022/07/22 02:58:07;;;;;;;8.50;5.95;;;;;;;;;;5119830;27;20049;-70
2022/07/22 03:00:37;;;;;;;19.48;6.80;;;;;;;;;;5119867;27;20041;-70
2022/07/22 03:03:05;;;;;;;10.15;6.30;;;;;;;;;;5119887;27;20045;-70
2022/07/22 03:05:34;;;;;;;10.60;5.57;;;;;;;;;;5119834;27;20090;-70
2022/07/22 03:08:21;;;;;;;12.75;6.40;;;;;;;;;;5119714;27;20049;-70
2022/07/22 03:10:50;;;;;;;12.05;5.63;;;;;;;;;;5119633;27;20499;-69
2022/07/22 03:13:20;;;;;;;11.38;6.30;;;;;;;;;;5119576;27;20044;-70
2022/07/22 03:15:47;;;;;;;11.07;5.72;;;;;;;;;;5119638;27;20139;-70
2022/07/22 03:18:15;;;;;;;12.82;5.53;;;;;;;;;;5119448;27;20124;-70
2022/07/22 03:20:42;;;;;;;12.30;5.78;;;;;;;;;;5102482;28;20494;-70
2022/07/22 03:23:10;;;;;;;12.50;6.40;;;;;;;;;;5119181;27;20045;-70
2022/07/22 03:25:38;;;;;;;11.18;6.13;;;;;;;;;;5118860;27;20033;-70
2022/07/22 03:28:06;;;;;;;12.48;6.20;;;;;;;;;;5119263;27;20049;-70
2022/07/22 03:30:35;;;;;;;12.15;5.78;;;;;;;;;;5119158;27;20136;-70
2022/07/22 03:33:03;;;;;;;9.82;6.20;;;;;;;;;;5119028;27;20089;-70
2022/07/22 03:35:36;;;;;;;13.55;6.97;;;;;;;;;;5119032;27;20055;-70
2022/07/22 03:38:04;;;;;;;15.43;8.57;;;;;;;;;;5118807;27;20045;-70
2022/07/22 03:40:32;;;;;;;14.40;5.43;;;;;;;;;;5119107;27;20506;-70
2022/07/22 03:42:59;;;;;;;12.25;5.28;;;;;;;;;;5118960;27;20049;-70
2022/07/22 03:45:27;;;;;;;12.38;5.10;;;;;;;;;;5132741;27;20137;-71
2022/07/22 03:47:57;;;;;;;18.13;6.57;;;;;;;;;;5133085;27;20416;-71
2022/07/22 03:50:28;;;;;;;13.50;5.75;;;;;;;;;;5132637;27;20043;-71
2022/07/22 03:52:55;;;;;;;10.82;5.85;;;;;;;;;;5133075;27;20549;-71
2022/07/22 03:55:23;;;;;;;13.43;6.45;;;;;;;;;;5132883;27;20070;-70
2022/07/22 03:57:54;;;;;;;13.57;7.75;;;;;;;;;;5132971;27;20043;-71
2022/07/22 04:00:26;;;;;;;13.20;6.57;;;;;;;;;;5132826;27;20075;-71
2022/07/22 04:02:54;;;;;;;10.38;5.75;;;;;;;;;;5132674;27;20039;-71
2022/07/22 04:05:38;;;;;;;8.43;5.18;;;;;;;;;;5132767;27;20046;-71
2022/07/22 04:08:08;;;;;;;14.60;5.72;;;;;;;;;;5132620;27;20095;-72
2022/07/22 04:10:36;;;;;;;11.57;6.68;;;;;;;;;;5132571;27;20623;-71
2022/07/22 04:13:04;;;;;;;10.43;5.82;;;;;;;;;;5132723;27;20047;-71
2022/07/22 04:15:41;;;;;;;10.85;6.05;;;;;;;;;;5132664;27;20043;-71
2022/07/22 04:18:10;;;;;;;12.45;5.55;;;;;;;;;;5132738;27;20092;-71
2022/07/22 04:20:37;;;;;;;13.93;5.45;;;;;;;;;;5132160;27;20051;-71
2022/07/22 04:23:31;;;;;;;19.45;7.30;;;;;;;;;;5116029;27;20062;-72
2022/07/22 04:26:10;;;;;;;8.45;5.10;;;;;;;;;;5132383;27;20074;-71
2022/07/22 04:28:38;;;;;;;13.60;6.35;;;;;;;;;;5132419;27;20043;-71
2022/07/22 04:31:05;;;;;;;32.85;22.50;;;;;;;;;;5132096;27;20088;-70
2022/07/22 04:33:36;;;;;;;11.77;7.35;;;;;;;;;;5132181;27;20515;-70
2022/07/22 04:36:04;;;;;;;14.07;5.50;;;;;;;;;;5132251;27;20047;-69
2022/07/22 04:38:31;;;;;;;11.18;6.82;;;;;;;;;;5132198;27;20039;-70
2022/07/22 04:41:03;;;;;;;10.70;5.25;;;;;;;;;;5132088;27;20054;-69
2022/07/22 04:43:30;;;;;;;10.15;4.97;;;;;;;;;;5131942;28;20092;-69
2022/07/22 04:45:58;;;;;;;10.00;4.75;;;;;;;;;;5131910;28;20415;-69
2022/07/22 04:48:30;;;;;;;14.60;4.78;;;;;;;;;;5132217;28;20054;-69
2022/07/22 04:51:01;;;;;;;12.98;5.75;;;;;;;;;;5132318;28;20039;-72
2022/07/22 04:53:30;;;;;;;12.75;6.63;;;;;;;;;;5132040;28;20077;-70
2022/07/22 04:56:18;;;;;;;11.38;5.15;;;;;;;;;;5132506;28;20434;-71
2022/07/22 04:58:46;;;;;;;12.10;5.10;;;;;;;;;;5132203;28;20604;-71
2022/07/22 05:01:14;;;;;;;8.85;4.10;;;;;;;;;;5132080;28;20135;-71
2022/07/22 05:03:46;;;;;;;11.20;4.82;;;;;;;;;;5131871;28;20066;-72
2022/07/22 05:06:14;;;;;;;8.57;4.97;;;;;;;;;;5131994;28;20126;-71
2022/07/22 05:08:44;;;;;;;9.00;5.22;;;;;;;;;;5132152;28;20039;-71
2022/07/22 05:11:12;;;;;;;12.45;5.32;;;;;;;;;;5133418;28;20032;-71
2022/07/22 05:13:39;;;;;;;9.77;4.80;;;;;;;;;;5131993;28;20067;-70
2022/07/22 05:16:08;;;;;;;14.15;5.57;;;;;;;;;;5132080;28;20130;-71
2022/07/22 05:18:38;;;;;;;5.95;3.92;;;;;;;;;;5132087;28;20087;-71
2022/07/22 05:21:08;;;;;;;7.90;4.43;;;;;;;;;;5132008;28;20072;-71
2022/07/22 05:23:36;;;;;;;9.30;4.07;;;;;;;;;;5131933;28;20400;-71
2022/07/22 05:26:04;;;;;;;8.32;3.63;;;;;;;;;;5131905;28;20559;-71
2022/07/22 05:28:32;;;;;;;12.98;4.25;;;;;;;;;;5131867;28;20043;-72
2022/07/22 05:31:01;;;;;;;11.57;3.72;;;;;;;;;;5115331;27;20412;-71
2022/07/22 05:33:31;;;;;;;15.18;3.90;;;;;;;;;;5134757;27;20051;-71
2022/07/22 05:36:24;;;;;;;7.13;3.70;;;;;;;;;;5134762;27;20050;-71
2022/07/22 05:38:54;;;;;;;9.90;4.65;;;;;;;;;;5135861;27;20484;-70
2022/07/22 05:41:22;;;;;;;7.43;3.38;;;;;;;;;;5135712;27;20051;-70
2022/07/22 05:43:51;;;;;;;8.23;3.55;;;;;;;;;;5135608;27;20098;-71
2022/07/22 05:46:19;;;;;;;5.97;3.22;;;;;;;;;;5135501;27;20088;-71
2022/07/22 05:48:47;;;;;;;10.15;3.35;;;;;;;;;;5135534;27;20047;-71
2022/07/22 05:51:15;;;;;;;5.75;3.13;;;;;;;;;;5135556;27;20039;-70
2022/07/22 05:53:44;;;;;;;8.48;3.17;;;;;;;;;;5135866;27;20144;-72
2022/07/22 05:56:12;;;;;;;8.35;3.58;;;;;;;;;;5135543;27;20130;-71
2022/07/22 05:58:41;;;;;;;9.65;3.83;;;;;;;;;;5135721;27;20075;-71
2022/07/22 06:01:11;;;;;;;6.50;3.58;;;;;;;;;;5135397;27;20043;-71
2022/07/22 06:03:41;;;;;;;8.23;2.85;;;;;;;;;;5135182;27;20100;-71
2022/07/22 06:06:11;;;;;;;10.93;3.58;;;;;;;;;;5135118;27;20043;-71
2022/07/22 06:08:39;;;;;;;5.35;3.03;;;;;;;;;;5135033;27;20051;-71
2022/07/22 06:11:07;;;;;;;11.73;6.22;;;;;;;;;;5135040;27;20092;-71
2022/07/22 06:13:34;;;;;;;7.20;3.90;;;;;;;;;;5135032;27;20043;-71
2022/07/22 06:16:02;;;;;;;6.15;2.72;;;;;;;;;;5134947;27;20043;-71
2022/07/22 06:18:30;;;;;;;9.13;2.95;;;;;;;;;;5134947;27;20473;-72
2022/07/22 06:20:58;;;;;;;6.80;2.30;;;;;;;;;;5134879;27;20125;-72
2022/07/22 06:23:26;;;;;;;4.57;2.30;;;;;;;;;;5134740;27;20055;-71
2022/07/22 06:25:54;;;;;;;6.15;1.92;;;;;;;;;;5134811;27;20043;-73
2022/07/22 06:28:27;;;;;;;5.47;2.95;;;;;;;;;;5134757;27;20142;-71
2022/07/22 06:30:55;;;;;;;7.40;2.55;;;;;;;;;;5134763;27;20047;-71
2022/07/22 06:33:22;;;;;;;10.52;4.57;;;;;;;;;;5134662;27;20081;-71
2022/07/22 06:35:50;;;;;;;7.22;2.35;;;;;;;;;;5134666;27;20051;-72
2022/07/22 06:38:18;;;;;;;4.38;2.45;;;;;;;;;;5134625;27;20137;-72
2022/07/22 06:41:28;;;;;;;7.10;3.08;;;;;;;;;;5121958;27;20629;-71
2022/07/22 06:43:56;;;;;;;6.28;3.15;;;;;;;;;;5133638;27;20507;-71
2022/07/22 06:46:45;;;;;;;5.78;2.50;;;;;;;;;;5120419;27;20045;-71
2022/07/22 06:49:16;;;;;;;8.85;2.67;;;;;;;;;;5120169;27;20053;-72
2022/07/22 06:51:45;;;;;;;7.35;3.00;;;;;;;;;;5120137;27;20502;-71
2022/07/22 06:54:12;;;;;;;9.38;2.72;;;;;;;;;;5120097;27;20037;-71
2022/07/22 06:56:40;;;;;;;6.85;3.00;;;;;;;;;;5051152;28;20037;-71
2022/07/22 06:59:13;;;;;;;8.15;2.10;;;;;;;;;;5119873;27;20428;-71
2022/07/22 07:01:40;;;;;;;6.18;1.88;;;;;;;;;;5119763;27;20044;-71
2022/07/22 07:04:08;;;;;;;4.63;2.00;;;;;;;;;;5119951;27;20061;-71
2022/07/22 07:06:36;;;;;;;7.18;1.95;;;;;;;;;;5119897;27;20085;-71
2022/07/22 07:09:11;;;;;;;3.78;1.80;;;;;;;;;;5119739;27;20058;-71
2022/07/22 07:11:40;;;;;;;4.30;2.25;;;;;;;;;;5119894;27;20090;-71
2022/07/22 07:14:17;;;;;;;5.30;2.05;;;;;;;;;;5119819;27;20045;-71
2022/07/22 07:16:44;;;;;;;5.45;2.00;;;;;;;;;;5119744;27;20488;-71
2022/07/22 07:19:12;;;;;;;5.30;1.60;;;;;;;;;;5119820;27;20513;-71
2022/07/22 07:21:40;;;;;;;8.23;1.70;;;;;;;;;;5119538;27;20067;-71
2022/07/22 07:24:08;;;;;;;3.88;2.08;;;;;;;;;;5050470;28;20045;-71
2022/07/22 07:26:36;;;;;;;2.17;1.70;;;;;;;;;;5050492;28;20502;-71
2022/07/22 07:29:04;;;;;;;8.40;2.20;;;;;;;;;;5119450;27;20402;-71
2022/07/22 07:31:39;;;;;;;4.63;1.90;;;;;;;;;;5119297;27;20049;-71
2022/07/22 07:34:13;;;;;;;6.85;1.40;;;;;;;;;;5119169;27;20072;-71
2022/07/22 07:36:40;;;;;;;6.05;1.63;;;;;;;;;;5050755;28;20053;-71
2022/07/22 07:39:11;;;;;;;3.03;1.42;;;;;;;;;;5119272;27;20045;-70
2022/07/22 07:41:39;;;;;;;4.65;1.70;;;;;;;;;;5119179;27;20045;-71
2022/07/22 07:44:07;;;;;;;7.40;1.55;;;;;;;;;;5118750;27;20093;-71
2022/07/22 07:46:37;;;;;;;4.60;1.60;;;;;;;;;;5119277;27;20055;-71
2022/07/22 07:49:05;;;;;;;6.03;2.22;;;;;;;;;;5050361;28;20410;-72
2022/07/22 07:51:33;;;;;;;12.35;2.35;;;;;;;;;;5119196;27;20061;-72
2022/07/22 07:54:01;;;;;;;3.53;1.98;;;;;;;;;;5101995;28;20102;-71
2022/07/22 07:56:28;;;;;;;4.18;3.20;;;;;;;;;;5118499;27;20045;-72
2022/07/22 07:58:56;;;;;;;1.83;1.30;;;;;;;;;;5119036;27;20048;-72
2022/07/22 08:01:45;;;;;;;2.72;1.40;;;;;;;;;;5119054;27;20045;-71
2022/07/22 08:04:29;;;;;;;3.17;1.60;;;;;;;;;;5118619;27;20579;-72
2022/07/22 08:07:08;;;;;;;3.47;2.08;;;;;;;;;;5118873;27;20525;-70
2022/07/22 08:09:37;;;;;;;4.15;2.05;;;;;;;;;;5118763;27;20060;-72
2022/07/22 08:12:13;;;;;;;5.93;3.10;;;;;;;;;;5118518;27;20037;-71
2022/07/22 08:15:13;;;;;;;4.70;1.77;;;;;;;;;;5119092;27;20034;-72
2022/07/22 08:17:46;;;;;;;;;;;;;;;;;;5119088;27;20055;-71
2022/07/22 08:20:14;;;;;;;5.53;1.80;;;;;;;;;;5118775;27;19960;-71
2022/07/22 08:22:48;;;;;;;2.78;1.50;;;;;;;;;;5049798;28;20041;-71
2022/07/22 08:25:16;;;;;;;6.05;2.13;;;;;;;;;;5118606;27;20037;-72
2022/07/22 08:27:44;;;;;;;6.10;1.70;;;;;;;;;;5118759;27;20049;-72
2022/07/22 08:30:12;;;;;;;5.13;1.67;;;;;;;;;;5118397;27;20052;-73
2022/07/22 08:32:40;;;;;;;6.50;2.92;;;;;;;;;;5049661;28;20037;-72
2022/07/22 08:35:08;;;;;;;9.55;3.55;;;;;;;;;;5118171;27;20098;-72
2022/07/22 08:37:37;;;;;;;2.97;1.85;;;;;;;;;;5118646;27;20394;-70
2022/07/22 08:40:06;;;;;;;8.77;2.42;;;;;;;;;;5049563;28;20419;-72
2022/07/22 08:42:37;;;;;;;4.75;2.10;;;;;;;;;;5135530;27;20139;-73
2022/07/22 08:45:06;;;;;;;5.38;2.30;;;;;;;;;;5118168;27;20064;-72
2022/07/22 08:47:38;;;;;;;5.15;2.30;;;;;;;;;;5118218;27;20645;-71
2022/07/22 08:50:33;;;;;;;5.95;1.95;;;;;;;;;;5054602;27;20106;-71
2022/07/22 08:53:21;;;;;;;3.95;1.85;;;;;;;;;;5049705;28;20125;-72
2022/07/22 08:55:54;;;;;;;4.70;2.00;;;;;;;;;;5118596;28;20057;-71
2022/07/22 08:58:22;;;;;;;8.30;2.55;;;;;;;;;;5118122;28;20045;-71
2022/07/22 09:01:05;;;;;;;7.93;2.33;;;;;;;;;;5118114;28;20049;-71
2022/07/22 09:03:33;;;;;;;6.30;2.47;;;;;;;;;;5117779;28;20082;-70
2022/07/22 09:06:01;;;;;;;7.50;2.30;;;;;;;;;;5049670;28;20432;-71
2022/07/22 09:08:29;;;;;;;2.17;1.70;;;;;;;;;;5122270;27;20531;-71
2022/07/22 09:11:26;;;;;;;4.38;2.13;;;;;;;;;;5122313;27;20060;-70
2022/07/22 09:14:08;;;;;;;7.97;2.85;;;;;;;;;;5052990;28;20049;-71
2022/07/22 09:16:51;;;;;;;4.33;1.80;;;;;;;;;;5107286;27;20056;-71
2022/07/22 09:19:35;;;;;;;5.03;2.10;;;;;;;;;;5121942;27;20097;-71
2022/07/22 09:22:34;;;;;;;4.50;2.10;;;;;;;;;;5058211;28;20045;-71
2022/07/22 09:25:35;;;;;;;3.38;2.10;;;;;;;;;;5052906;27;20059;-71
2022/07/22 09:28:23;;;;;;;2.92;1.88;;;;;;;;;;5052902;28;20060;-72
2022/07/22 09:31:24;;;;;;;3.22;1.98;;;;;;;;;;5052562;28;20056;-71
2022/07/22 09:34:01;;;;;;;6.38;1.90;;;;;;;;;;5121539;27;20044;-71
2022/07/22 09:36:30;;;;;;;23.65;20.08;;;;;;;;;;5121474;27;20041;-71
2022/07/22 09:38:58;;;;;;;9.88;5.82;;;;;;;;;;5121519;27;20048;-70
2022/07/22 09:41:27;;;;;;;4.55;2.40;;;;;;;;;;5104678;28;20458;-71
2022/07/22 09:43:54;;;;;;;11.65;7.95;;;;;;;;;;5121488;27;20139;-70
2022/07/22 09:46:37;;;;;;;7.28;2.58;;;;;;;;;;5121562;27;20071;-71
2022/07/22 09:49:37;;;;;;;3.03;2.30;;;;;;;;;;5052132;28;20044;-71
2022/07/22 09:52:37;;;;;;;4.28;2.28;;;;;;;;;;5093409;27;20144;-71
2022/07/22 09:55:08;;;;;;;5.05;2.00;;;;;;;;;;5121113;27;20045;-71
2022/07/22 09:57:37;;;;;;;5.20;2.00;;;;;;;;;;5121374;27;20041;-71
2022/07/22 10:00:08;;;;;;;4.43;2.55;;;;;;;;;;5121298;27;20468;-71
2022/07/22 10:03:00;;;;;;;5.43;2.80;;;;;;;;;;5105701;27;20405;-71
2022/07/22 10:05:37;;;;;;;3.50;2.20;;;;;;;;;;5121248;27;20076;-71
2022/07/22 10:08:06;;;;;;;3.65;1.73;;;;;;;;;;5120475;27;20047;-71
2022/07/22 10:10:36;;;;;;;4.78;2.25;;;;;;;;;;5121044;27;20044;-72
2022/07/22 10:13:04;;;;;;;9.30;3.28;;;;;;;;;;5120547;27;20099;-72
2022/07/22 10:15:35;;;;;;;5.45;2.47;;;;;;;;;;5120869;27;20037;-71
2022/07/22 10:18:07;;;;;;;3.30;1.73;;;;;;;;;;5120351;27;20049;-71
2022/07/22 10:20:37;;;;;;;3.40;2.10;;;;;;;;;;5120784;27;20391;-71
2022/07/22 10:23:06;;;;;;;6.47;2.13;;;;;;;;;;5103830;27;20040;-71
2022/07/22 10:26:06;;;;;;;7.45;4.75;;;;;;;;;;5120607;27;20048;-71
2022/07/22 10:28:38;;;;;;;6.55;2.65;;;;;;;;;;5108183;27;20451;-71
2022/07/22 10:31:15;;;;;;;4.97;2.25;;;;;;;;;;5120744;27;20073;-71
2022/07/22 10:33:44;;;;;;;7.18;3.65;;;;;;;;;;5119802;27;20490;-71
2022/07/22 10:36:13;;;;;;;6.43;2.00;;;;;;;;;;5051527;28;20558;-71
2022/07/22 10:39:01;;;;;;;5.85;4.30;;;;;;;;;;5120599;27;20105;-71
2022/07/22 10:41:39;;;;;;;7.63;5.50;;;;;;;;;;5051687;28;20037;-71
2022/07/22 10:44:08;;;;;;;6.70;3.83;;;;;;;;;;5051212;28;20033;-71
2022/07/22 10:46:51;;;;;;;7.00;2.15;;;;;;;;;;5051577;28;20034;-72
2022/07/22 10:49:23;;;;;;;4.22;2.22;;;;;;;;;;5051295;28;20136;-72
2022/07/22 10:52:17;;;;;;;7.30;2.53;;;;;;;;;;5051133;28;20045;-72
2022/07/22 10:55:14;;;;;;;8.40;2.70;;;;;;;;;;5117386;27;20414;-70
2022/07/22 10:57:42;;;;;;;6.20;2.70;;;;;;;;;;5055446;28;20097;-71
2022/07/22 11:00:09;;;;;;;5.53;2.70;;;;;;;;;;5051181;28;20041;-72
2022/07/22 11:02:38;;;;;;;6.55;2.55;;;;;;;;;;5051105;28;20045;-72
2022/07/22 11:05:06;;;;;;;13.65;3.10;;;;;;;;;;5050999;28;20069;-73
2022/07/22 11:07:34;;;;;;;5.78;2.90;;;;;;;;;;5119173;27;20041;-71
2022/07/22 11:10:11;;;;;;;6.75;3.13;;;;;;;;;;5050806;28;20521;-71
2022/07/22 11:12:49;;;;;;;3.83;2.53;;;;;;;;;;5050817;28;20064;-72
2022/07/22 11:15:18;;;;;;;8.25;1.83;;;;;;;;;;5050716;28;20383;-72
2022/07/22 11:17:45;;;;;;;5.13;2.15;;;;;;;;;;5119446;27;20048;-71
2022/07/22 11:20:13;;;;;;;6.03;2.97;;;;;;;;;;5050653;28;20439;-71
2022/07/22 11:22:41;;;;;;;6.40;2.28;;;;;;;;;;5050787;28;20389;-72
2022/07/22 11:25:09;;;;;;;9.38;2.90;;;;;;;;;;5050678;28;20049;-72
2022/07/22 11:27:37;;;;;;;10.35;2.63;;;;;;;;;;5118468;27;20041;-72
2022/07/22 11:30:06;;;;;;;6.50;2.63;;;;;;;;;;5050583;28;20136;-72
2022/07/22 11:32:42;;;;;;;6.07;2.80;;;;;;;;;;5118659;27;20049;-72
2022/07/22 11:35:13;;;;;;;10.20;2.58;;;;;;;;;;5050415;28;20132;-72
2022/07/22 11:37:40;;;;;;;6.15;2.00;;;;;;;;;;5050500;28;20045;-72
2022/07/22 11:40:09;;;;;;;4.55;2.50;;;;;;;;;;5118768;27;20049;-72
2022/07/22 11:42:37;;;;;;;3.83;2.00;;;;;;;;;;5050449;28;20554;-72
2022/07/22 11:45:05;;;;;;;5.40;2.20;;;;;;;;;;5050166;28;20057;-70
2022/07/22 11:47:32;;;;;;;7.57;2.47;;;;;;;;;;5050637;28;20041;-72
2022/07/22 11:50:00;;;;;;;4.88;2.15;;;;;;;;;;5050277;28;20045;-73
2022/07/22 11:52:27;;;;;;;6.55;2.22;;;;;;;;;;5050303;28;20076;-72
2022/07/22 11:54:55;;;;;;;5.95;2.35;;;;;;;;;;5050145;28;20037;-71
2022/07/22 11:57:23;;;;;;;4.40;2.10;;;;;;;;;;5118880;27;20065;-71
2022/07/22 11:59:50;;;;;;;5.40;2.17;;;;;;;;;;5118818;27;20487;-71
2022/07/22 12:02:18;;;;;;;7.05;4.28;;;;;;;;;;5050095;28;20486;-71
2022/07/22 12:04:47;;;;;;;5.43;3.20;;;;;;;;;;5050010;28;20119;-70
2022/07/22 12:07:15;;;;;;;8.15;2.33;;;;;;;;;;5050037;28;20060;-71
2022/07/22 12:09:45;;;;;;;4.40;2.20;;;;;;;;;;5050045;28;20127;-72
2022/07/22 12:12:12;;;;;;;11.85;3.00;;;;;;;;;;5050243;28;20037;-70
2022/07/22 12:14:45;;;;;;;4.53;2.70;;;;;;;;;;5049864;28;20486;-72
2022/07/22 12:17:15;;;;;;;4.50;1.98;;;;;;;;;;5049896;28;20041;-72
2022/07/22 12:19:43;;;;;;;5.07;2.13;;;;;;;;;;5049762;28;20071;-72
2022/07/22 12:22:13;;;;;;;5.60;2.50;;;;;;;;;;5050086;28;20490;-72
2022/07/22 12:24:42;;;;;;;7.25;2.30;;;;;;;;;;5049640;28;20037;-72
2022/07/22 12:27:11;;;;;;;4.13;2.20;;;;;;;;;;5049484;28;20045;-71
2022/07/22 12:29:38;;;;;;;6.15;2.47;;;;;;;;;;5049613;28;20077;-71
2022/07/22 12:32:07;;;;;;;8.10;2.97;;;;;;;;;;5049631;28;20047;-72
2022/07/22 12:34:42;;;;;;;4.82;3.00;;;;;;;;;;5049818;28;20053;-72
2022/07/22 12:37:14;;;;;;;4.10;2.03;;;;;;;;;;5049551;28;20048;-73
2022/07/22 12:39:59;;;;;;;8.32;2.33;;;;;;;;;;5049527;28;20045;-72
2022/07/22 12:42:28;;;;;;;5.80;3.60;;;;;;;;;;5049025;28;20045;-71
2022/07/22 12:45:04;;;;;;;8.00;2.42;;;;;;;;;;5049439;28;20045;-71
2022/07/22 12:47:51;;;;;;;4.82;2.95;;;;;;;;;;5049579;28;20563;-73
2022/07/22 12:50:19;;;;;;;4.05;2.42;;;;;;;;;;5117941;28;20041;-72
2022/07/22 12:52:47;;;;;;;6.90;3.10;;;;;;;;;;5049539;28;20037;-72
2022/07/22 12:55:45;;;;;;;8.77;4.43;;;;;;;;;;5106400;28;20094;-72
2022/07/22 12:58:14;;;;;;;5.80;2.28;;;;;;;;;;5049632;28;20048;-72
2022/07/22 13:00:48;;;;;;;9.10;3.47;;;;;;;;;;5049346;28;20401;-71
2022/07/22 13:03:18;;;;;;;4.75;2.55;;;;;;;;;;5049329;28;20461;-71
2022/07/22 13:05:54;;;;;;;7.63;3.50;;;;;;;;;;5117173;28;20113;-71
2022/07/22 13:08:23;;;;;;;7.80;2.67;;;;;;;;;;5049335;28;20066;-72
2022/07/22 13:10:51;;;;;;;3.83;2.22;;;;;;;;;;5049683;27;20048;-72
2022/07/22 13:13:19;;;;;;;5.25;2.25;;;;;;;;;;5049230;28;20488;-71
2022/07/22 13:15:47;;;;;;;5.13;2.70;;;;;;;;;;5118339;28;20124;-72
2022/07/22 13:18:16;;;;;;;5.68;2.53;;;;;;;;;;5049163;28;20128;-71
2022/07/22 13:20:44;;;;;;;8.85;2.90;;;;;;;;;;5049158;28;20056;-71
2022/07/22 13:23:12;;;;;;;6.22;2.72;;;;;;;;;;5049075;28;20041;-71
2022/07/22 13:25:39;;;;;;;13.35;3.80;;;;;;;;;;5049118;28;20041;-71
2022/07/22 13:28:07;;;;;;;9.10;3.15;;;;;;;;;;5049049;28;20045;-71
2022/07/22 13:30:34;;;;;;;5.82;2.40;;;;;;;;;;5049057;28;20068;-72
2022/07/22 13:33:02;;;;;;;10.32;3.40;;;;;;;;;;5117881;28;20068;-71
2022/07/22 13:35:30;;;;;;;10.90;3.20;;;;;;;;;;5049292;28;20454;-71
2022/07/22 13:37:58;;;;;;;12.55;3.35;;;;;;;;;;5049117;28;20041;-72
2022/07/22 13:40:26;;;;;;;7.00;2.90;;;;;;;;;;5117141;28;20041;-72
2022/07/22 13:42:54;;;;;;;6.93;3.00;;;;;;;;;;5115828;28;20044;-72
2022/07/22 13:45:21;;;;;;;7.60;2.80;;;;;;;;;;5038425;28;20049;-72
2022/07/22 13:47:49;;;;;;;121.13;9.38;;;;;;;;;;5048433;28;20508;-74
2022/07/22 13:50:16;;;;;;;5.30;2.33;;;;;;;;;;5074531;28;20066;-74
2022/07/22 13:52:46;;;;;;;13.88;3.03;;;;;;;;;;5050167;27;20490;-74
2022/07/22 13:55:14;;;;;;;6.40;2.35;;;;;;;;;;5051724;28;20059;-75
2022/07/22 13:57:42;;;;;;;7.47;2.50;;;;;;;;;;5052785;28;20144;-75
2022/07/22 14:00:12;;;;;;;4.35;2.70;;;;;;;;;;5051796;28;20538;-75
2022/07/22 14:02:43;;;;;;;4.82;2.10;;;;;;;;;;5052027;28;20051;-74
2022/07/22 14:05:11;;;;;;;5.10;2.72;;;;;;;;;;5101854;27;20051;-76
2022/07/22 14:07:40;;;;;;;7.05;2.50;;;;;;;;;;5039274;28;20487;-78
2022/07/22 14:10:08;;;;;;;9.63;2.40;;;;;;;;;;5110862;27;20048;-71
2022/07/22 14:12:35;;;;;;;6.32;2.80;;;;;;;;;;5099183;27;20533;-74
2022/07/22 14:15:03;;;;;;;6.68;3.33;;;;;;;;;;5033917;28;20044;-73
2022/07/22 14:17:32;;;;;;;7.97;3.65;;;;;;;;;;5042509;28;20120;-74
2022/07/22 14:20:00;;;;;;;16.25;4.22;;;;;;;;;;5051721;28;20053;-74
2022/07/22 14:22:28;;;;;;;15.98;2.95;;;;;;;;;;5051286;28;20033;-73
2022/07/22 14:24:56;;;;;;;12.32;3.05;;;;;;;;;;5051835;27;20056;-74
2022/07/22 14:27:23;;;;;;;6.60;3.25;;;;;;;;;;5051008;28;20041;-73
2022/07/22 14:29:51;;;;;;;7.20;3.53;;;;;;;;;;5051338;28;20052;-74
2022/07/22 14:32:19;;;;;;;11.55;2.92;;;;;;;;;;5051138;28;20037;-74
2022/07/22 14:34:46;;;;;;;5.00;2.72;;;;;;;;;;5051573;28;20508;-74
2022/07/22 14:37:14;;;;;;;5.43;2.83;;;;;;;;;;5040919;28;20120;-74
2022/07/22 14:39:42;;;;;;;6.78;3.90;;;;;;;;;;5031650;28;20045;-74
2022/07/22 14:42:09;;;;;;;6.53;2.45;;;;;;;;;;5101454;27;20045;-75
2022/07/22 14:44:37;;;;;;;7.43;2.72;;;;;;;;;;5034535;28;20395;-74
2022/07/22 14:47:04;;;;;;;9.25;2.63;;;;;;;;;;5032202;28;20042;-74
2022/07/22 14:49:32;;;;;;;12.18;3.05;;;;;;;;;;5035330;28;20043;-74
2022/07/22 14:51:59;;;;;;;8.88;2.70;;;;;;;;;;5042138;28;20493;-74
2022/07/22 14:54:27;;;;;;;13.10;3.08;;;;;;;;;;5046130;28;20132;-74
2022/07/22 14:56:55;;;;;;;6.05;3.10;;;;;;;;;;5051101;28;20041;-75
2022/07/22 14:59:25;;;;;;;5.40;2.70;;;;;;;;;;5050712;28;20041;-74
2022/07/22 15:01:53;;;;;;;5.28;2.47;;;;;;;;;;5050877;28;20483;-74
2022/07/22 15:04:20;;;;;;;8.30;2.50;;;;;;;;;;5050277;28;20375;-74